sensor_id;sensor_type;location;lat;lon;timestamp;P1;durP1;ratioP1;P2;durP2;ratioP2
10191;SDS011;17580;50.850;4.504;2022-12-18T00:00:49;18.10;;;12.43;;
10191;SDS011;17580;50.850;4.504;2022-12-18T00:03:16;22.10;;;13.60;;
10191;SDS011;17580;50.850;4.504;2022-12-18T00:05:47;20.27;;;13.03;;
10191;SDS011;17580;50.850;4.504;2022-12-18T00:08:14;18.90;;;11.63;;
10191;SDS011;17580;50.850;4.504;2022-12-18T00:10:42;18.53;;;11.53;;
10191;SDS011;17580;50.850;4.504;2022-12-18T00:13:10;19.20;;;12.13;;
10191;SDS011;17580;50.850;4.504;2022-12-18T00:15:39;19.13;;;12.13;;
10191;SDS011;17580;50.850;4.504;2022-12-18T00:18:26;21.13;;;13.37;;
10191;SDS011;17580;50.850;4.504;2022-12-18T00:20:53;20.73;;;13.00;;
10191;SDS011;17580;50.850;4.504;2022-12-18T00:23:24;20.10;;;12.63;;
10191;SDS011;17580;50.850;4.504;2022-12-18T00:25:51;23.67;;;14.50;;
10191;SDS011;17580;50.850;4.504;2022-12-18T00:28:18;18.27;;;11.80;;
10191;SDS011;17580;50.850;4.504;2022-12-18T00:30:45;21.10;;;13.03;;
10191;SDS011;17580;50.850;4.504;2022-12-18T00:33:12;16.63;;;11.53;;
10191;SDS011;17580;50.850;4.504;2022-12-18T00:35:40;19.13;;;12.20;;
10191;SDS011;17580;50.850;4.504;2022-12-18T00:38:07;19.17;;;11.83;;
10191;SDS011;17580;50.850;4.504;2022-12-18T00:40:34;19.80;;;12.43;;
10191;SDS011;17580;50.850;4.504;2022-12-18T00:43:01;19.13;;;13.13;;
10191;SDS011;17580;50.850;4.504;2022-12-18T00:45:27;19.57;;;12.20;;
10191;SDS011;17580;50.850;4.504;2022-12-18T00:47:56;20.17;;;12.23;;
10191;SDS011;17580;50.850;4.504;2022-12-18T00:50:24;17.67;;;11.90;;
10191;SDS011;17580;50.850;4.504;2022-12-18T00:52:52;22.47;;;13.10;;
10191;SDS011;17580;50.850;4.504;2022-12-18T00:55:19;18.07;;;12.23;;
10191;SDS011;17580;50.850;4.504;2022-12-18T00:57:46;18.73;;;12.63;;
10191;SDS011;17580;50.850;4.504;2022-12-18T01:00:14;22.70;;;13.93;;
10191;SDS011;17580;50.850;4.504;2022-12-18T01:02:41;20.83;;;13.63;;
10191;SDS011;17580;50.850;4.504;2022-12-18T01:05:09;22.37;;;12.43;;
10191;SDS011;17580;50.850;4.504;2022-12-18T01:07:37;16.13;;;11.00;;
10191;SDS011;17580;50.850;4.504;2022-12-18T01:10:07;20.67;;;12.43;;
10191;SDS011;17580;50.850;4.504;2022-12-18T01:12:35;20.67;;;12.10;;
10191;SDS011;17580;50.850;4.504;2022-12-18T01:15:03;19.43;;;12.90;;
10191;SDS011;17580;50.850;4.504;2022-12-18T01:17:31;20.63;;;13.10;;
10191;SDS011;17580;50.850;4.504;2022-12-18T01:19:58;21.80;;;13.13;;
10191;SDS011;17580;50.850;4.504;2022-12-18T01:22:25;22.13;;;13.53;;
10191;SDS011;17580;50.850;4.504;2022-12-18T01:24:52;20.93;;;12.77;;
10191;SDS011;17580;50.850;4.504;2022-12-18T01:27:20;20.43;;;13.53;;
10191;SDS011;17580;50.850;4.504;2022-12-18T01:29:48;24.00;;;15.57;;
10191;SDS011;17580;50.850;4.504;2022-12-18T01:32:15;22.47;;;14.60;;
10191;SDS011;17580;50.850;4.504;2022-12-18T01:34:42;21.13;;;13.93;;
10191;SDS011;17580;50.850;4.504;2022-12-18T01:37:09;23.13;;;14.10;;
10191;SDS011;17580;50.850;4.504;2022-12-18T01:39:36;25.27;;;15.33;;
10191;SDS011;17580;50.850;4.504;2022-12-18T01:42:08;29.53;;;15.97;;
10191;SDS011;17580;50.850;4.504;2022-12-18T01:44:58;23.27;;;14.73;;
10191;SDS011;17580;50.850;4.504;2022-12-18T01:47:28;18.77;;;12.90;;
10191;SDS011;17580;50.850;4.504;2022-12-18T01:50:00;20.53;;;13.57;;
10191;SDS011;17580;50.850;4.504;2022-12-18T01:52:31;19.63;;;11.60;;
10191;SDS011;17580;50.850;4.504;2022-12-18T01:54:58;21.67;;;12.43;;
10191;SDS011;17580;50.850;4.504;2022-12-18T01:57:26;20.70;;;12.53;;
10191;SDS011;17580;50.850;4.504;2022-12-18T01:59:59;19.13;;;11.97;;
10191;SDS011;17580;50.850;4.504;2022-12-18T02:02:30;18.70;;;11.60;;
10191;SDS011;17580;50.850;4.504;2022-12-18T02:04:57;19.70;;;11.93;;
10191;SDS011;17580;50.850;4.504;2022-12-18T02:07:25;17.90;;;11.97;;
10191;SDS011;17580;50.850;4.504;2022-12-18T02:10:00;24.60;;;11.87;;
10191;SDS011;17580;50.850;4.504;2022-12-18T02:12:34;17.90;;;11.27;;
10191;SDS011;17580;50.850;4.504;2022-12-18T02:15:11;20.73;;;12.27;;
10191;SDS011;17580;50.850;4.504;2022-12-18T02:17:46;18.13;;;11.70;;
10191;SDS011;17580;50.850;4.504;2022-12-18T02:20:18;21.50;;;12.13;;
10191;SDS011;17580;50.850;4.504;2022-12-18T02:22:58;16.80;;;11.70;;
10191;SDS011;17580;50.850;4.504;2022-12-18T02:25:38;17.70;;;12.00;;
10191;SDS011;17580;50.850;4.504;2022-12-18T02:28:15;19.70;;;12.80;;
10191;SDS011;17580;50.850;4.504;2022-12-18T02:30:46;20.77;;;13.50;;
10191;SDS011;17580;50.850;4.504;2022-12-18T02:33:15;19.83;;;12.70;;
10191;SDS011;17580;50.850;4.504;2022-12-18T02:35:43;21.43;;;12.43;;
10191;SDS011;17580;50.850;4.504;2022-12-18T02:38:13;20.97;;;14.13;;
10191;SDS011;17580;50.850;4.504;2022-12-18T02:40:41;23.90;;;14.67;;
10191;SDS011;17580;50.850;4.504;2022-12-18T02:43:09;21.67;;;13.43;;
10191;SDS011;17580;50.850;4.504;2022-12-18T02:45:47;17.40;;;11.80;;
10191;SDS011;17580;50.850;4.504;2022-12-18T02:48:17;20.10;;;13.47;;
10191;SDS011;17580;50.850;4.504;2022-12-18T02:50:48;19.50;;;12.50;;
10191;SDS011;17580;50.850;4.504;2022-12-18T02:53:24;29.87;;;17.40;;
10191;SDS011;17580;50.850;4.504;2022-12-18T02:55:58;23.77;;;14.33;;
10191;SDS011;17580;50.850;4.504;2022-12-18T02:58:33;25.43;;;14.33;;
10191;SDS011;17580;50.850;4.504;2022-12-18T03:01:09;25.30;;;13.40;;
10191;SDS011;17580;50.850;4.504;2022-12-18T03:03:40;23.57;;;13.80;;
10191;SDS011;17580;50.850;4.504;2022-12-18T03:06:15;22.87;;;13.77;;
10191;SDS011;17580;50.850;4.504;2022-12-18T03:08:50;20.53;;;12.63;;
10191;SDS011;17580;50.850;4.504;2022-12-18T03:11:24;21.03;;;13.23;;
10191;SDS011;17580;50.850;4.504;2022-12-18T03:14:08;24.13;;;14.13;;
10191;SDS011;17580;50.850;4.504;2022-12-18T03:16:39;24.20;;;12.87;;
10191;SDS011;17580;50.850;4.504;2022-12-18T03:19:08;26.67;;;14.87;;
10191;SDS011;17580;50.850;4.504;2022-12-18T03:21:40;24.37;;;13.43;;
10191;SDS011;17580;50.850;4.504;2022-12-18T03:24:09;22.23;;;12.97;;
10191;SDS011;17580;50.850;4.504;2022-12-18T03:26:38;23.33;;;12.70;;
10191;SDS011;17580;50.850;4.504;2022-12-18T03:29:10;40.63;;;20.47;;
10191;SDS011;17580;50.850;4.504;2022-12-18T03:31:45;29.17;;;15.47;;
10191;SDS011;17580;50.850;4.504;2022-12-18T03:34:19;27.43;;;14.70;;
10191;SDS011;17580;50.850;4.504;2022-12-18T03:36:51;21.77;;;13.63;;
10191;SDS011;17580;50.850;4.504;2022-12-18T03:39:19;21.33;;;11.80;;
10191;SDS011;17580;50.850;4.504;2022-12-18T03:41:47;24.57;;;12.83;;
10191;SDS011;17580;50.850;4.504;2022-12-18T03:44:26;20.40;;;12.63;;
10191;SDS011;17580;50.850;4.504;2022-12-18T03:47:01;22.30;;;12.60;;
10191;SDS011;17580;50.850;4.504;2022-12-18T03:49:34;21.73;;;12.87;;
10191;SDS011;17580;50.850;4.504;2022-12-18T03:52:06;18.57;;;11.17;;
10191;SDS011;17580;50.850;4.504;2022-12-18T03:54:37;17.97;;;10.77;;
10191;SDS011;17580;50.850;4.504;2022-12-18T03:57:09;16.43;;;10.90;;
10191;SDS011;17580;50.850;4.504;2022-12-18T03:59:43;16.93;;;10.20;;
10191;SDS011;17580;50.850;4.504;2022-12-18T04:02:13;18.30;;;10.73;;
10191;SDS011;17580;50.850;4.504;2022-12-18T04:04:42;14.53;;;9.60;;
10191;SDS011;17580;50.850;4.504;2022-12-18T04:07:11;16.60;;;11.27;;
10191;SDS011;17580;50.850;4.504;2022-12-18T04:09:39;25.60;;;13.30;;
10191;SDS011;17580;50.850;4.504;2022-12-18T04:12:09;25.57;;;13.50;;
10191;SDS011;17580;50.850;4.504;2022-12-18T04:14:36;25.70;;;12.93;;
10191;SDS011;17580;50.850;4.504;2022-12-18T04:17:03;22.87;;;13.13;;
10191;SDS011;17580;50.850;4.504;2022-12-18T04:19:32;24.20;;;12.53;;
10191;SDS011;17580;50.850;4.504;2022-12-18T04:21:59;22.00;;;12.70;;
10191;SDS011;17580;50.850;4.504;2022-12-18T04:24:26;19.00;;;12.03;;
10191;SDS011;17580;50.850;4.504;2022-12-18T04:26:53;15.90;;;10.90;;
10191;SDS011;17580;50.850;4.504;2022-12-18T04:29:20;13.83;;;9.47;;
10191;SDS011;17580;50.850;4.504;2022-12-18T04:31:47;19.73;;;10.77;;
10191;SDS011;17580;50.850;4.504;2022-12-18T04:34:14;21.10;;;10.53;;
10191;SDS011;17580;50.850;4.504;2022-12-18T04:36:42;23.23;;;11.43;;
10191;SDS011;17580;50.850;4.504;2022-12-18T04:39:09;24.33;;;11.77;;
10191;SDS011;17580;50.850;4.504;2022-12-18T04:41:36;32.13;;;13.60;;
10191;SDS011;17580;50.850;4.504;2022-12-18T04:44:03;24.23;;;13.10;;
10191;SDS011;17580;50.850;4.504;2022-12-18T04:46:30;27.20;;;12.90;;
10191;SDS011;17580;50.850;4.504;2022-12-18T04:48:57;20.20;;;12.30;;
10191;SDS011;17580;50.850;4.504;2022-12-18T04:51:24;21.17;;;11.83;;
10191;SDS011;17580;50.850;4.504;2022-12-18T04:53:53;14.10;;;9.10;;
10191;SDS011;17580;50.850;4.504;2022-12-18T04:56:20;20.07;;;11.20;;
10191;SDS011;17580;50.850;4.504;2022-12-18T04:58:48;15.83;;;9.20;;
10191;SDS011;17580;50.850;4.504;2022-12-18T05:01:16;15.80;;;9.57;;
10191;SDS011;17580;50.850;4.504;2022-12-18T05:03:44;15.83;;;10.33;;
10191;SDS011;17580;50.850;4.504;2022-12-18T05:06:11;16.33;;;9.70;;
10191;SDS011;17580;50.850;4.504;2022-12-18T05:08:38;14.97;;;9.30;;
10191;SDS011;17580;50.850;4.504;2022-12-18T05:11:07;12.73;;;9.27;;
10191;SDS011;17580;50.850;4.504;2022-12-18T05:13:36;18.00;;;10.63;;
10191;SDS011;17580;50.850;4.504;2022-12-18T05:16:03;12.90;;;8.93;;
10191;SDS011;17580;50.850;4.504;2022-12-18T05:18:31;14.40;;;8.80;;
10191;SDS011;17580;50.850;4.504;2022-12-18T05:20:58;12.93;;;9.27;;
10191;SDS011;17580;50.850;4.504;2022-12-18T05:23:25;15.53;;;9.50;;
10191;SDS011;17580;50.850;4.504;2022-12-18T05:25:53;16.40;;;9.33;;
10191;SDS011;17580;50.850;4.504;2022-12-18T05:28:23;19.37;;;11.33;;
10191;SDS011;17580;50.850;4.504;2022-12-18T05:30:52;14.93;;;9.53;;
10191;SDS011;17580;50.850;4.504;2022-12-18T05:33:20;14.33;;;8.37;;
10191;SDS011;17580;50.850;4.504;2022-12-18T05:35:49;14.80;;;8.60;;
10191;SDS011;17580;50.850;4.504;2022-12-18T05:38:17;11.93;;;8.70;;
10191;SDS011;17580;50.850;4.504;2022-12-18T05:40:44;12.63;;;8.30;;
10191;SDS011;17580;50.850;4.504;2022-12-18T05:43:11;13.53;;;8.70;;
10191;SDS011;17580;50.850;4.504;2022-12-18T05:45:39;13.40;;;8.83;;
10191;SDS011;17580;50.850;4.504;2022-12-18T05:48:07;12.00;;;8.30;;
10191;SDS011;17580;50.850;4.504;2022-12-18T05:50:37;13.30;;;8.20;;
10191;SDS011;17580;50.850;4.504;2022-12-18T05:53:06;12.93;;;7.40;;
10191;SDS011;17580;50.850;4.504;2022-12-18T05:55:34;14.87;;;9.10;;
10191;SDS011;17580;50.850;4.504;2022-12-18T05:58:01;14.83;;;8.20;;
10191;SDS011;17580;50.850;4.504;2022-12-18T06:00:28;15.03;;;8.10;;
10191;SDS011;17580;50.850;4.504;2022-12-18T06:02:57;13.57;;;7.77;;
10191;SDS011;17580;50.850;4.504;2022-12-18T06:05:24;15.70;;;9.07;;
10191;SDS011;17580;50.850;4.504;2022-12-18T06:07:51;12.57;;;8.20;;
10191;SDS011;17580;50.850;4.504;2022-12-18T06:10:18;12.60;;;8.97;;
10191;SDS011;17580;50.850;4.504;2022-12-18T06:12:45;13.03;;;8.40;;
10191;SDS011;17580;50.850;4.504;2022-12-18T06:15:12;11.73;;;8.13;;
10191;SDS011;17580;50.850;4.504;2022-12-18T06:17:39;12.60;;;8.07;;
10191;SDS011;17580;50.850;4.504;2022-12-18T06:20:09;14.70;;;8.30;;
10191;SDS011;17580;50.850;4.504;2022-12-18T06:22:36;9.63;;;7.07;;
10191;SDS011;17580;50.850;4.504;2022-12-18T06:25:03;12.87;;;8.20;;
10191;SDS011;17580;50.850;4.504;2022-12-18T06:27:31;11.43;;;7.47;;
10191;SDS011;17580;50.850;4.504;2022-12-18T06:29:58;10.27;;;7.20;;
10191;SDS011;17580;50.850;4.504;2022-12-18T06:32:25;10.50;;;6.93;;
10191;SDS011;17580;50.850;4.504;2022-12-18T06:34:53;9.53;;;7.70;;
10191;SDS011;17580;50.850;4.504;2022-12-18T06:37:21;12.00;;;7.97;;
10191;SDS011;17580;50.850;4.504;2022-12-18T06:39:51;13.50;;;9.03;;
10191;SDS011;17580;50.850;4.504;2022-12-18T06:42:18;13.90;;;8.37;;
10191;SDS011;17580;50.850;4.504;2022-12-18T06:44:44;12.53;;;8.60;;
10191;SDS011;17580;50.850;4.504;2022-12-18T06:47:11;11.33;;;8.10;;
10191;SDS011;17580;50.850;4.504;2022-12-18T06:49:38;10.37;;;6.80;;
10191;SDS011;17580;50.850;4.504;2022-12-18T06:52:05;12.43;;;7.50;;
10191;SDS011;17580;50.850;4.504;2022-12-18T06:54:34;11.73;;;7.60;;
10191;SDS011;17580;50.850;4.504;2022-12-18T06:57:01;11.93;;;7.40;;
10191;SDS011;17580;50.850;4.504;2022-12-18T06:59:28;10.40;;;6.67;;
10191;SDS011;17580;50.850;4.504;2022-12-18T07:01:54;10.30;;;6.90;;
10191;SDS011;17580;50.850;4.504;2022-12-18T07:04:21;11.03;;;7.47;;
10191;SDS011;17580;50.850;4.504;2022-12-18T07:06:53;10.03;;;7.30;;
10191;SDS011;17580;50.850;4.504;2022-12-18T07:09:20;12.53;;;7.83;;
10191;SDS011;17580;50.850;4.504;2022-12-18T07:11:48;13.17;;;7.33;;
10191;SDS011;17580;50.850;4.504;2022-12-18T07:14:15;11.97;;;7.20;;
10191;SDS011;17580;50.850;4.504;2022-12-18T07:16:42;7.67;;;6.70;;
10191;SDS011;17580;50.850;4.504;2022-12-18T07:19:09;12.00;;;7.67;;
10191;SDS011;17580;50.850;4.504;2022-12-18T07:21:36;11.43;;;8.57;;
10191;SDS011;17580;50.850;4.504;2022-12-18T07:24:03;13.77;;;8.23;;
10191;SDS011;17580;50.850;4.504;2022-12-18T07:26:31;12.17;;;8.30;;
10191;SDS011;17580;50.850;4.504;2022-12-18T07:29:01;10.00;;;6.40;;
10191;SDS011;17580;50.850;4.504;2022-12-18T07:31:28;12.53;;;8.07;;
10191;SDS011;17580;50.850;4.504;2022-12-18T07:33:55;10.27;;;7.50;;
10191;SDS011;17580;50.850;4.504;2022-12-18T07:36:22;12.23;;;7.53;;
10191;SDS011;17580;50.850;4.504;2022-12-18T07:38:49;11.30;;;7.17;;
10191;SDS011;17580;50.850;4.504;2022-12-18T07:41:17;12.83;;;8.07;;
10191;SDS011;17580;50.850;4.504;2022-12-18T07:43:45;11.93;;;7.60;;
10191;SDS011;17580;50.850;4.504;2022-12-18T07:46:14;10.03;;;6.63;;
10191;SDS011;17580;50.850;4.504;2022-12-18T07:48:41;9.87;;;7.20;;
10191;SDS011;17580;50.850;4.504;2022-12-18T07:51:12;11.20;;;6.87;;
10191;SDS011;17580;50.850;4.504;2022-12-18T07:53:39;10.57;;;7.70;;
10191;SDS011;17580;50.850;4.504;2022-12-18T07:56:07;9.37;;;7.50;;
10191;SDS011;17580;50.850;4.504;2022-12-18T07:58:36;9.50;;;7.23;;
10191;SDS011;17580;50.850;4.504;2022-12-18T08:01:03;9.43;;;6.77;;
10191;SDS011;17580;50.850;4.504;2022-12-18T08:03:33;11.43;;;7.17;;
10191;SDS011;17580;50.850;4.504;2022-12-18T08:06:00;11.03;;;7.37;;
10191;SDS011;17580;50.850;4.504;2022-12-18T08:08:28;10.53;;;7.73;;
10191;SDS011;17580;50.850;4.504;2022-12-18T08:10:55;11.53;;;7.70;;
10191;SDS011;17580;50.850;4.504;2022-12-18T08:13:23;12.77;;;7.83;;
10191;SDS011;17580;50.850;4.504;2022-12-18T08:15:57;11.57;;;7.43;;
10191;SDS011;17580;50.850;4.504;2022-12-18T08:18:25;10.93;;;6.97;;
10191;SDS011;17580;50.850;4.504;2022-12-18T08:20:55;9.80;;;6.77;;
10191;SDS011;17580;50.850;4.504;2022-12-18T08:23:22;12.73;;;6.93;;
10191;SDS011;17580;50.850;4.504;2022-12-18T08:25:49;9.80;;;6.90;;
10191;SDS011;17580;50.850;4.504;2022-12-18T08:28:16;10.30;;;6.60;;
10191;SDS011;17580;50.850;4.504;2022-12-18T08:30:43;10.33;;;7.47;;
10191;SDS011;17580;50.850;4.504;2022-12-18T08:33:10;12.23;;;7.77;;
10191;SDS011;17580;50.850;4.504;2022-12-18T08:35:38;9.93;;;7.40;;
10191;SDS011;17580;50.850;4.504;2022-12-18T08:38:06;8.17;;;5.83;;
10191;SDS011;17580;50.850;4.504;2022-12-18T08:40:33;8.53;;;6.37;;
10191;SDS011;17580;50.850;4.504;2022-12-18T08:43:00;10.60;;;7.10;;
10191;SDS011;17580;50.850;4.504;2022-12-18T08:45:44;9.50;;;6.03;;
10191;SDS011;17580;50.850;4.504;2022-12-18T08:48:11;6.43;;;5.47;;
10191;SDS011;17580;50.850;4.504;2022-12-18T08:50:40;6.93;;;5.57;;
10191;SDS011;17580;50.850;4.504;2022-12-18T08:53:08;6.70;;;5.87;;
10191;SDS011;17580;50.850;4.504;2022-12-18T08:55:35;9.07;;;6.10;;
10191;SDS011;17580;50.850;4.504;2022-12-18T08:58:02;8.50;;;6.17;;
10191;SDS011;17580;50.850;4.504;2022-12-18T09:00:29;8.83;;;6.27;;
10191;SDS011;17580;50.850;4.504;2022-12-18T09:02:56;7.27;;;6.17;;
10191;SDS011;17580;50.850;4.504;2022-12-18T09:05:23;7.43;;;5.57;;
10191;SDS011;17580;50.850;4.504;2022-12-18T09:07:50;10.80;;;6.90;;
10191;SDS011;17580;50.850;4.504;2022-12-18T09:10:19;7.53;;;6.20;;
10191;SDS011;17580;50.850;4.504;2022-12-18T09:12:46;9.80;;;6.53;;
10191;SDS011;17580;50.850;4.504;2022-12-18T09:15:13;8.30;;;6.30;;
10191;SDS011;17580;50.850;4.504;2022-12-18T09:17:40;8.30;;;5.90;;
10191;SDS011;17580;50.850;4.504;2022-12-18T09:20:07;5.70;;;5.10;;
10191;SDS011;17580;50.850;4.504;2022-12-18T09:22:35;8.97;;;6.77;;
10191;SDS011;17580;50.850;4.504;2022-12-18T09:25:02;7.90;;;5.83;;
10191;SDS011;17580;50.850;4.504;2022-12-18T09:27:30;8.53;;;5.77;;
10191;SDS011;17580;50.850;4.504;2022-12-18T09:29:57;7.23;;;5.93;;
10191;SDS011;17580;50.850;4.504;2022-12-18T09:32:24;9.20;;;6.53;;
10191;SDS011;17580;50.850;4.504;2022-12-18T09:34:51;9.50;;;5.40;;
10191;SDS011;17580;50.850;4.504;2022-12-18T09:37:18;8.30;;;5.57;;
10191;SDS011;17580;50.850;4.504;2022-12-18T09:39:45;9.40;;;7.10;;
10191;SDS011;17580;50.850;4.504;2022-12-18T09:42:15;7.83;;;6.30;;
10191;SDS011;17580;50.850;4.504;2022-12-18T09:44:48;9.23;;;5.93;;
10191;SDS011;17580;50.850;4.504;2022-12-18T09:47:17;8.20;;;5.90;;
10191;SDS011;17580;50.850;4.504;2022-12-18T09:49:49;6.17;;;5.10;;
10191;SDS011;17580;50.850;4.504;2022-12-18T09:52:19;7.70;;;5.73;;
10191;SDS011;17580;50.850;4.504;2022-12-18T09:54:52;8.07;;;6.77;;
10191;SDS011;17580;50.850;4.504;2022-12-18T09:57:23;8.17;;;6.30;;
10191;SDS011;17580;50.850;4.504;2022-12-18T09:59:54;7.23;;;5.50;;
10191;SDS011;17580;50.850;4.504;2022-12-18T10:02:25;5.90;;;5.13;;
10191;SDS011;17580;50.850;4.504;2022-12-18T10:04:56;6.13;;;4.93;;
10191;SDS011;17580;50.850;4.504;2022-12-18T10:07:32;7.10;;;5.57;;
10191;SDS011;17580;50.850;4.504;2022-12-18T10:10:10;8.03;;;6.47;;
10191;SDS011;17580;50.850;4.504;2022-12-18T10:12:45;8.57;;;6.00;;
10191;SDS011;17580;50.850;4.504;2022-12-18T10:15:22;6.17;;;5.57;;
10191;SDS011;17580;50.850;4.504;2022-12-18T10:17:58;9.17;;;6.80;;
10191;SDS011;17580;50.850;4.504;2022-12-18T10:20:34;8.30;;;6.03;;
10191;SDS011;17580;50.850;4.504;2022-12-18T10:23:10;7.80;;;6.60;;
10191;SDS011;17580;50.850;4.504;2022-12-18T10:25:45;10.30;;;6.97;;
10191;SDS011;17580;50.850;4.504;2022-12-18T10:28:19;9.23;;;6.07;;
10191;SDS011;17580;50.850;4.504;2022-12-18T10:30:48;8.10;;;6.53;;
10191;SDS011;17580;50.850;4.504;2022-12-18T10:33:16;10.77;;;7.30;;
10191;SDS011;17580;50.850;4.504;2022-12-18T10:35:45;10.17;;;7.50;;
10191;SDS011;17580;50.850;4.504;2022-12-18T10:38:23;9.57;;;7.20;;
10191;SDS011;17580;50.850;4.504;2022-12-18T10:40:52;8.93;;;6.80;;
10191;SDS011;17580;50.850;4.504;2022-12-18T10:43:23;10.20;;;7.70;;
10191;SDS011;17580;50.850;4.504;2022-12-18T10:48:51;6.83;;;6.07;;
10191;SDS011;17580;50.850;4.504;2022-12-18T10:51:20;11.33;;;7.17;;
10191;SDS011;17580;50.850;4.504;2022-12-18T10:53:57;11.17;;;6.93;;
10191;SDS011;17580;50.850;4.504;2022-12-18T10:56:27;9.27;;;6.83;;
10191;SDS011;17580;50.850;4.504;2022-12-18T10:58:57;10.87;;;7.60;;
10191;SDS011;17580;50.850;4.504;2022-12-18T11:01:27;9.90;;;7.53;;
10191;SDS011;17580;50.850;4.504;2022-12-18T11:04:01;9.70;;;7.83;;
10191;SDS011;17580;50.850;4.504;2022-12-18T11:06:33;8.47;;;7.13;;
10191;SDS011;17580;50.850;4.504;2022-12-18T11:09:19;8.90;;;6.70;;
10191;SDS011;17580;50.850;4.504;2022-12-18T11:11:48;9.93;;;6.67;;
10191;SDS011;17580;50.850;4.504;2022-12-18T11:14:18;8.67;;;6.83;;
10191;SDS011;17580;50.850;4.504;2022-12-18T11:16:50;7.77;;;6.57;;
10191;SDS011;17580;50.850;4.504;2022-12-18T11:19:24;8.93;;;6.47;;
10191;SDS011;17580;50.850;4.504;2022-12-18T11:21:57;11.50;;;7.17;;
10191;SDS011;17580;50.850;4.504;2022-12-18T11:24:26;9.97;;;7.33;;
10191;SDS011;17580;50.850;4.504;2022-12-18T11:26:57;13.27;;;7.70;;
10191;SDS011;17580;50.850;4.504;2022-12-18T11:29:30;7.33;;;6.53;;
10191;SDS011;17580;50.850;4.504;2022-12-18T11:32:18;7.33;;;6.47;;
10191;SDS011;17580;50.850;4.504;2022-12-18T11:34:58;9.83;;;7.50;;
10191;SDS011;17580;50.850;4.504;2022-12-18T11:37:29;10.37;;;7.20;;
10191;SDS011;17580;50.850;4.504;2022-12-18T11:39:59;9.10;;;6.77;;
10191;SDS011;17580;50.850;4.504;2022-12-18T11:42:34;7.70;;;6.23;;
10191;SDS011;17580;50.850;4.504;2022-12-18T11:45:21;8.80;;;6.50;;
10191;SDS011;17580;50.850;4.504;2022-12-18T11:47:56;7.97;;;6.53;;
10191;SDS011;17580;50.850;4.504;2022-12-18T11:50:30;9.70;;;7.47;;
10191;SDS011;17580;50.850;4.504;2022-12-18T11:53:04;9.57;;;7.10;;
10191;SDS011;17580;50.850;4.504;2022-12-18T11:55:37;9.30;;;7.33;;
10191;SDS011;17580;50.850;4.504;2022-12-18T11:58:11;10.43;;;7.77;;
10191;SDS011;17580;50.850;4.504;2022-12-18T12:00:46;8.87;;;6.83;;
10191;SDS011;17580;50.850;4.504;2022-12-18T12:03:27;9.93;;;7.90;;
10191;SDS011;17580;50.850;4.504;2022-12-18T12:06:16;11.90;;;8.83;;
10191;SDS011;17580;50.850;4.504;2022-12-18T12:08:54;10.60;;;7.70;;
10191;SDS011;17580;50.850;4.504;2022-12-18T12:11:31;13.47;;;9.20;;
10191;SDS011;17580;50.850;4.504;2022-12-18T12:16:58;10.43;;;8.20;;
10191;SDS011;17580;50.850;4.504;2022-12-18T12:19:35;11.47;;;8.23;;
10191;SDS011;17580;50.850;4.504;2022-12-18T12:22:10;12.90;;;9.27;;
10191;SDS011;17580;50.850;4.504;2022-12-18T12:24:49;12.97;;;9.50;;
10191;SDS011;17580;50.850;4.504;2022-12-18T12:27:28;11.13;;;8.30;;
10191;SDS011;17580;50.850;4.504;2022-12-18T12:30:05;13.60;;;8.53;;
10191;SDS011;17580;50.850;4.504;2022-12-18T12:32:46;11.03;;;8.10;;
10191;SDS011;17580;50.850;4.504;2022-12-18T12:35:35;11.83;;;9.53;;
10191;SDS011;17580;50.850;4.504;2022-12-18T12:38:13;10.03;;;7.27;;
10191;SDS011;17580;50.850;4.504;2022-12-18T12:40:48;13.70;;;9.83;;
10191;SDS011;17580;50.850;4.504;2022-12-18T12:43:24;14.73;;;9.87;;
10191;SDS011;17580;50.850;4.504;2022-12-18T12:45:58;12.43;;;8.13;;
10191;SDS011;17580;50.850;4.504;2022-12-18T12:48:37;13.57;;;9.47;;
10191;SDS011;17580;50.850;4.504;2022-12-18T12:51:12;10.93;;;8.33;;
10191;SDS011;17580;50.850;4.504;2022-12-18T12:53:42;13.60;;;9.90;;
10191;SDS011;17580;50.850;4.504;2022-12-18T12:56:10;14.83;;;10.67;;
10191;SDS011;17580;50.850;4.504;2022-12-18T12:58:43;12.23;;;9.20;;
10191;SDS011;17580;50.850;4.504;2022-12-18T13:01:17;11.37;;;8.23;;
10191;SDS011;17580;50.850;4.504;2022-12-18T13:03:54;13.33;;;9.40;;
10191;SDS011;17580;50.850;4.504;2022-12-18T13:06:32;13.73;;;9.53;;
10191;SDS011;17580;50.850;4.504;2022-12-18T13:09:03;11.60;;;8.17;;
10191;SDS011;17580;50.850;4.504;2022-12-18T13:11:40;10.67;;;7.70;;
10191;SDS011;17580;50.850;4.504;2022-12-18T13:14:29;13.70;;;9.70;;
10191;SDS011;17580;50.850;4.504;2022-12-18T13:17:17;15.03;;;9.83;;
10191;SDS011;17580;50.850;4.504;2022-12-18T13:20:05;17.23;;;10.97;;
10191;SDS011;17580;50.850;4.504;2022-12-18T13:22:36;12.87;;;9.33;;
10191;SDS011;17580;50.850;4.504;2022-12-18T13:36:13;15.53;;;10.00;;
10191;SDS011;17580;50.850;4.504;2022-12-18T13:38:43;11.60;;;9.00;;
10191;SDS011;17580;50.850;4.504;2022-12-18T13:41:23;14.20;;;10.43;;
10191;SDS011;17580;50.850;4.504;2022-12-18T13:43:51;11.60;;;8.93;;
10191;SDS011;17580;50.850;4.504;2022-12-18T13:46:21;16.63;;;11.43;;
10191;SDS011;17580;50.850;4.504;2022-12-18T13:48:57;18.47;;;11.20;;
10191;SDS011;17580;50.850;4.504;2022-12-18T13:51:28;14.37;;;9.20;;
10191;SDS011;17580;50.850;4.504;2022-12-18T13:53:59;14.60;;;10.77;;
10191;SDS011;17580;50.850;4.504;2022-12-18T13:56:28;17.03;;;10.33;;
10191;SDS011;17580;50.850;4.504;2022-12-18T14:01:47;15.60;;;10.83;;
10191;SDS011;17580;50.850;4.504;2022-12-18T14:04:21;15.40;;;11.07;;
10191;SDS011;17580;50.850;4.504;2022-12-18T14:06:54;15.93;;;11.63;;
10191;SDS011;17580;50.850;4.504;2022-12-18T14:09:27;18.13;;;11.27;;
10191;SDS011;17580;50.850;4.504;2022-12-18T14:11:56;17.73;;;12.03;;
10191;SDS011;17580;50.850;4.504;2022-12-18T14:14:38;14.97;;;11.60;;
10191;SDS011;17580;50.850;4.504;2022-12-18T14:17:08;15.90;;;11.17;;
10191;SDS011;17580;50.850;4.504;2022-12-18T14:19:36;18.13;;;11.57;;
10191;SDS011;17580;50.850;4.504;2022-12-18T14:22:09;16.77;;;10.90;;
10191;SDS011;17580;50.850;4.504;2022-12-18T14:24:42;15.43;;;10.70;;
10191;SDS011;17580;50.850;4.504;2022-12-18T14:27:17;14.13;;;10.40;;
10191;SDS011;17580;50.850;4.504;2022-12-18T14:29:47;17.53;;;11.53;;
10191;SDS011;17580;50.850;4.504;2022-12-18T14:32:15;15.30;;;10.87;;
10191;SDS011;17580;50.850;4.504;2022-12-18T14:34:43;13.47;;;9.83;;
10191;SDS011;17580;50.850;4.504;2022-12-18T14:37:11;16.13;;;11.00;;
10191;SDS011;17580;50.850;4.504;2022-12-18T14:39:39;16.37;;;11.33;;
10191;SDS011;17580;50.850;4.504;2022-12-18T14:42:11;16.63;;;11.33;;
10191;SDS011;17580;50.850;4.504;2022-12-18T14:44:38;18.77;;;12.13;;
10191;SDS011;17580;50.850;4.504;2022-12-18T14:47:12;18.03;;;11.37;;
10191;SDS011;17580;50.850;4.504;2022-12-18T14:49:40;16.10;;;10.77;;
10191;SDS011;17580;50.850;4.504;2022-12-18T14:52:15;19.60;;;12.53;;
10191;SDS011;17580;50.850;4.504;2022-12-18T14:54:46;17.77;;;11.73;;
10191;SDS011;17580;50.850;4.504;2022-12-18T14:57:17;18.63;;;12.50;;
10191;SDS011;17580;50.850;4.504;2022-12-18T14:59:48;18.53;;;12.67;;
10191;SDS011;17580;50.850;4.504;2022-12-18T15:02:18;18.87;;;11.70;;
10191;SDS011;17580;50.850;4.504;2022-12-18T15:04:47;18.87;;;11.80;;
10191;SDS011;17580;50.850;4.504;2022-12-18T15:07:27;21.27;;;13.07;;
10191;SDS011;17580;50.850;4.504;2022-12-18T15:10:09;16.13;;;11.27;;